Terminal Aerodrome Forecast
Issued by NWS

Home | Current Version | Previous Version | Text Only | Print | Product List | Glossary On
Versions: 1 2 3 4 5 6 7 8 9 10 11 12 13 14 15 16 17 18 19
000
FTUS45 KFGZ 210500
TAFGCN
TAF
KGCN 210520Z 2106/2206 VRB05KT P6SM FEW090 FEW250
     FM212000 20009G16KT P6SM SCT100 SCT250
     FM220200 VRB03KT P6SM FEW250=

USA.gov is the U.S. government's official web portal to all federal, state and local government web resources and services.